This demonstration page uses our WeatherBlox Daily Observations layout. Learn more.

39.01783, -85.05884

Hourly Observations for August 2, 2019

Temp ( °F °C ) Dew Point ( °F °C ) Humidity (%) Winds ( mph kmh ) Pressure ( in mb ) Visibility ( mi km ) Precip ( " mm )
12:52 am 00:52 Mostly Clear 74 23.3 64 17.8 71 71 ENE 8 13 30.06 1018 10 16.09344 0 0
1:52 am 01:52 Mostly Clear 74 23.3 64 17.8 71 71 NE 7 11 30.06 1018 10 16.09344 0 0
2:52 am 02:52 Clear 72 22.2 63 17.2 73 73 NE 8 13 30.06 1018 10 16.09344 0 0
3:52 am 03:52 Clear 72 22.2 64 17.8 76 76 NE 9 15 30.06 1018 10 16.09344 0 0
4:52 am 04:52 Clear 71 21.7 63 17.2 76 76 NE 9 15 30.06 1018 10 16.09344 0 0
5:52 am 05:52 Clear 70 21.1 62 16.7 76 76 NE 8 13 30.06 1018 10 16.09344 0 0
7:52 am 07:52 Sunny 71 21.7 59 15 66 66 NNE 8 13 30.06 1018 10 16.09344 0 0
8:52 am 08:52 Sunny 73 22.8 61 16.1 66 66 NE 7 11 30.06 1018 10 16.09344 0 0
9:52 am 09:52 Sunny 77 25 62 16.7 60 60 NE 9 15 30.06 1018 10 16.09344 0 0
10:52 am 10:52 Sunny 80 26.7 62 16.7 54 54 ENE 12 19 30.06 1018 10 16.09344 0 0
11:52 am 11:52 Mostly Sunny 83 28.3 62 16.7 49 49 ENE 10 17 30.06 1018 10 16.09344 0 0
12:52 pm 12:52 Mostly Sunny 84 28.9 62 16.7 48 48 NE 9 15 30.06 1018 10 16.09344 0 0
1:52 pm 13:52 Mostly Cloudy 87 30.6 62 16.7 43 43 ENE 12 19 30.06 1018 10 16.09344 0 0
2:52 pm 14:52 Mostly Cloudy 87 30.6 61 16.1 42 42 VRB 5 7 30.03 1017 10 16.09344 0 0
3:52 pm 15:52 Mostly Cloudy 85 29.4 61 16.1 45 45 NNE 10 17 30.03 1017 10 16.09344 0 0
4:52 pm 16:52 Partly Cloudy 87 30.6 59 15 39 39 undefined N/A 30 1016 10 16.09344 0 0
5:52 pm 17:52 Mostly Sunny 85 29.4 59 15 42 42 NNW 10 17 30 1016 10 16.09344 0 0
6:52 pm 18:52 Partly Cloudy 84 28.9 59 15 43 43 N 10 17 30 1016 10 16.09344 0 0
7:52 pm 19:52 Partly Cloudy 83 28.3 59 15 44 44 N 9 15 30 1016 10 16.09344 0 0
8:52 pm 20:52 Mostly Clear 79 26.1 59 15 50 50 N 7 11 30 1016 10 16.09344 0 0
9:52 pm 21:52 Mostly Clear 79 26.1 58 14.4 49 49 NE 8 13 30 1016 10 16.09344 0 0
10:52 pm 22:52 Mostly Clear 78 25.6 56 13.3 47 47 NE 7 11 30.03 1017 10 16.09344 0 0
11:52 pm 23:52 Clear 74 23.3 56 13.3 54 54 N 6 9 30.03 1017 10 16.09344 0 0

Powered by AerisWeather